createdAt,value
2022-12-09T00:01:18.171Z,8.24
2022-12-09T00:03:56.225Z,8.22
2022-12-09T00:06:31.303Z,8.22
2022-12-09T00:09:05.812Z,8.21
2022-12-09T00:11:38.145Z,8.22
2022-12-09T00:14:12.576Z,8.24
2022-12-09T00:16:44.870Z,8.26
2022-12-09T00:19:18.808Z,8.23
2022-12-09T00:21:51.200Z,8.22
2022-12-09T00:24:23.032Z,8.22
2022-12-09T00:26:56.035Z,8.25
2022-12-09T00:29:30.667Z,8.22
2022-12-09T00:32:03.708Z,8.17
2022-12-09T00:34:36.284Z,8.15
2022-12-09T00:37:09.079Z,8.15
2022-12-09T00:39:41.229Z,8.20
2022-12-09T00:42:13.434Z,8.26
2022-12-09T00:44:45.372Z,8.28
2022-12-09T00:47:17.488Z,8.22
2022-12-09T00:49:49.546Z,8.22
2022-12-09T00:52:21.764Z,8.24
2022-12-09T00:54:53.847Z,8.24
2022-12-09T00:57:28.329Z,8.26
2022-12-09T01:00:01.926Z,8.27
2022-12-09T01:02:35.490Z,8.26
2022-12-09T01:05:10.087Z,8.23
2022-12-09T01:07:43.815Z,8.24
2022-12-09T01:10:18.282Z,8.23
2022-12-09T01:12:51.064Z,8.25
2022-12-09T01:15:23.364Z,8.24
2022-12-09T01:17:56.211Z,8.23
2022-12-09T01:20:29.546Z,8.23
2022-12-09T01:23:04.540Z,8.20
2022-12-09T01:25:39.349Z,8.16
2022-12-09T01:28:12.608Z,8.18
2022-12-09T01:30:45.216Z,8.22
2022-12-09T01:33:17.008Z,8.21
2022-12-09T01:35:52.066Z,8.20
2022-12-09T01:38:27.156Z,8.15
2022-12-09T01:40:59.324Z,8.14
2022-12-09T01:43:32.402Z,8.19
2022-12-09T01:46:06.995Z,8.21
2022-12-09T01:48:41.744Z,8.22
2022-12-09T01:51:20.025Z,8.21
2022-12-09T01:53:53.611Z,8.21
2022-12-09T01:56:28.626Z,8.21
2022-12-09T01:59:07.260Z,8.20
2022-12-09T02:01:42.376Z,8.17
2022-12-09T02:04:17.025Z,8.15
2022-12-09T02:06:49.640Z,8.11
2022-12-09T02:09:22.335Z,8.13
2022-12-09T02:12:04.614Z,8.11
2022-12-09T02:14:43.009Z,8.11
2022-12-09T02:17:28.743Z,8.13
2022-12-09T02:20:07.771Z,8.15
2022-12-09T02:22:44.020Z,8.16
2022-12-09T02:25:25.969Z,8.16
2022-12-09T02:28:11.860Z,8.20
2022-12-09T02:30:50.350Z,8.18
2022-12-09T02:33:32.318Z,8.13
2022-12-09T02:36:09.304Z,8.16
2022-12-09T02:38:46.858Z,8.14
2022-12-09T02:41:23.249Z,8.12
2022-12-09T02:44:00.411Z,8.15
2022-12-09T02:46:33.788Z,8.16
2022-12-09T02:49:08.029Z,8.15
2022-12-09T02:51:42.419Z,8.18
2022-12-09T02:54:17.757Z,8.18
2022-12-09T02:56:57.815Z,8.20
2022-12-09T02:59:32.305Z,8.15
2022-12-09T03:02:14.024Z,8.10
2022-12-09T03:04:49.798Z,8.08
2022-12-09T03:07:30.975Z,8.06
2022-12-09T03:10:08.650Z,8.09
2022-12-09T03:12:43.365Z,8.05
2022-12-09T03:15:17.108Z,8.03
2022-12-09T03:17:50.085Z,8.02
2022-12-09T03:20:26.469Z,8.00
2022-12-09T03:23:05.780Z,7.95
2022-12-09T03:25:43.909Z,7.96
2022-12-09T03:28:21.909Z,7.96
2022-12-09T03:30:54.798Z,7.92
2022-12-09T03:33:30.720Z,7.91
2022-12-09T03:36:06.903Z,7.88
2022-12-09T03:38:40.955Z,7.85
2022-12-09T03:41:18.721Z,7.86
2022-12-09T03:43:54.950Z,7.85
2022-12-09T03:46:29.286Z,7.87
2022-12-09T03:49:03.040Z,7.88
2022-12-09T03:51:39.799Z,7.90
2022-12-09T03:54:17.340Z,7.92
2022-12-09T03:56:57.002Z,7.93
2022-12-09T03:59:32.903Z,7.95
2022-12-09T04:02:07.849Z,7.95
2022-12-09T04:04:43.510Z,7.95
2022-12-09T04:07:18.150Z,7.98
2022-12-09T04:09:51.367Z,7.98
2022-12-09T04:12:23.638Z,8.02
2022-12-09T04:14:57.688Z,8.01
2022-12-09T04:17:29.868Z,7.97
2022-12-09T04:20:04.832Z,7.91
2022-12-09T04:22:39.296Z,7.87
2022-12-09T04:25:15.771Z,7.87
2022-12-09T04:27:52.882Z,7.86
2022-12-09T04:30:27.142Z,7.87
2022-12-09T04:33:00.338Z,7.86
2022-12-09T04:35:37.032Z,7.83
2022-12-09T04:38:08.987Z,7.84
2022-12-09T04:40:42.245Z,7.82
2022-12-09T04:43:19.183Z,7.79
2022-12-09T04:45:51.718Z,7.79
2022-12-09T04:48:24.270Z,7.79
2022-12-09T04:50:56.161Z,7.74
2022-12-09T04:53:29.842Z,7.72
2022-12-09T04:56:06.751Z,7.72
2022-12-09T04:58:39.079Z,7.76
2022-12-09T05:01:14.535Z,7.80
2022-12-09T05:03:51.994Z,7.82
2022-12-09T05:06:26.866Z,7.82
2022-12-09T05:09:01.305Z,7.85
2022-12-09T05:11:36.048Z,7.84
2022-12-09T05:14:09.566Z,7.86
2022-12-09T05:16:42.740Z,7.86
2022-12-09T05:19:17.998Z,7.82
2022-12-09T05:21:50.845Z,7.80
2022-12-09T05:24:24.870Z,7.80
2022-12-09T05:26:57.082Z,7.80
2022-12-09T05:29:32.037Z,7.76
2022-12-09T05:32:05.086Z,7.80
2022-12-09T05:34:39.600Z,7.83
2022-12-09T05:37:16.624Z,7.79
2022-12-09T05:39:52.628Z,7.72
2022-12-09T05:42:27.531Z,7.68
2022-12-09T05:45:00.426Z,7.63
2022-12-09T05:47:35.387Z,7.65
2022-12-09T05:50:10.439Z,7.65
2022-12-09T05:52:43.967Z,7.64
2022-12-09T05:55:17.045Z,7.62
2022-12-09T05:57:51.067Z,7.58
2022-12-09T06:00:25.730Z,7.59
2022-12-09T06:02:59.271Z,7.55
2022-12-09T06:05:35.657Z,7.51
2022-12-09T06:08:09.908Z,7.46
2022-12-09T06:10:43.441Z,7.38
2022-12-09T06:13:17.080Z,7.31
2022-12-09T06:15:52.007Z,7.24
2022-12-09T06:18:26.124Z,7.18
2022-12-09T06:20:59.799Z,7.15
2022-12-09T06:23:34.321Z,7.12
2022-12-09T06:26:10.477Z,7.11
2022-12-09T06:28:45.072Z,7.07
2022-12-09T06:31:19.076Z,7.03
2022-12-09T06:33:55.300Z,6.98
2022-12-09T06:36:33.880Z,6.91
2022-12-09T06:39:10.521Z,6.89
2022-12-09T06:41:44.999Z,6.87
2022-12-09T06:44:23.474Z,6.84
2022-12-09T06:46:57.698Z,6.84
2022-12-09T06:49:30.103Z,6.83
2022-12-09T06:52:04.497Z,6.85
2022-12-09T06:54:40.869Z,6.87
2022-12-09T06:57:15.108Z,6.82
2022-12-09T06:59:48.178Z,6.83
2022-12-09T07:02:20.771Z,6.85
2022-12-09T07:04:56.768Z,6.84
2022-12-09T07:07:30.574Z,6.85
2022-12-09T07:10:08.104Z,6.88
2022-12-09T07:12:41.275Z,6.87
2022-12-09T07:15:16.429Z,6.90
2022-12-09T07:17:49.003Z,6.91
2022-12-09T07:20:22.349Z,6.95
2022-12-09T07:22:58.694Z,7.02
2022-12-09T07:25:31.947Z,7.06
2022-12-09T07:28:04.427Z,7.09
2022-12-09T07:30:38.622Z,7.13
2022-12-09T07:33:12.379Z,7.25
2022-12-09T07:35:44.788Z,7.32
2022-12-09T07:38:19.439Z,7.39
2022-12-09T07:40:54.221Z,7.46
2022-12-09T07:43:26.528Z,7.53
2022-12-09T07:45:58.824Z,7.57
2022-12-09T07:48:31.972Z,7.60
2022-12-09T07:51:05.682Z,7.71
2022-12-09T07:53:41.277Z,7.78
2022-12-09T07:56:16.335Z,7.79
2022-12-09T07:58:51.309Z,7.81
2022-12-09T08:01:25.987Z,7.89
2022-12-09T08:04:01.478Z,7.91
2022-12-09T08:06:35.843Z,7.97
2022-12-09T08:09:12.415Z,7.96
2022-12-09T08:11:44.623Z,7.99
2022-12-09T08:14:17.611Z,7.99
2022-12-09T08:16:49.930Z,8.01
2022-12-09T08:19:24.581Z,8.08
2022-12-09T08:21:59.165Z,8.11
2022-12-09T08:24:32.693Z,8.13
2022-12-09T08:27:06.057Z,8.19
2022-12-09T08:29:40.191Z,8.23
2022-12-09T08:32:15.055Z,8.22
2022-12-09T08:34:48.380Z,8.25
2022-12-09T08:37:21.702Z,8.30
2022-12-09T08:39:55.248Z,8.33
2022-12-09T08:42:30.679Z,8.32
2022-12-09T08:45:06.671Z,8.37
2022-12-09T08:47:39.568Z,8.47
2022-12-09T08:50:14.446Z,8.55
2022-12-09T08:52:46.670Z,8.63
2022-12-09T08:55:18.965Z,8.78
2022-12-09T08:57:53.989Z,8.91
2022-12-09T09:00:27.865Z,9.03
2022-12-09T09:03:01.235Z,9.02
2022-12-09T09:05:35.181Z,9.08
2022-12-09T09:08:11.147Z,9.09
2022-12-09T09:10:44.101Z,9.14
2022-12-09T09:13:19.610Z,9.21
2022-12-09T09:15:52.632Z,9.23
2022-12-09T09:18:26.382Z,9.25
2022-12-09T09:20:59.753Z,9.30
2022-12-09T09:23:33.290Z,9.38
2022-12-09T09:26:07.011Z,9.36
2022-12-09T09:28:39.949Z,9.36
2022-12-09T09:31:16.661Z,9.42
2022-12-09T09:33:49.915Z,9.45
2022-12-09T09:36:25.076Z,9.50
2022-12-09T09:39:00.278Z,9.59
2022-12-09T09:41:46.334Z,9.62
2022-12-09T09:44:25.602Z,9.75
2022-12-09T09:47:01.238Z,9.89
2022-12-09T09:49:41.395Z,9.97
2022-12-09T09:52:19.084Z,10.04
2022-12-09T09:54:51.979Z,10.06
2022-12-09T09:57:31.546Z,10.07
2022-12-09T10:00:19.638Z,10.16
2022-12-09T10:03:00.984Z,10.11
2022-12-09T10:05:36.032Z,10.14
2022-12-09T10:08:33.682Z,10.20
2022-12-09T10:11:18.925Z,10.28
2022-12-09T10:14:00.448Z,10.29
2022-12-09T10:16:37.989Z,10.25
2022-12-09T10:19:18.957Z,10.32
2022-12-09T10:21:55.425Z,10.34
2022-12-09T10:24:39.301Z,10.30
2022-12-09T10:27:19.999Z,10.25
2022-12-09T10:29:57.828Z,10.26
2022-12-09T10:32:33.757Z,10.29
2022-12-09T10:35:16.983Z,10.32
2022-12-09T10:37:52.509Z,10.43
2022-12-09T10:40:37.093Z,10.59
2022-12-09T10:43:38.643Z,10.54
2022-12-09T10:46:19.251Z,10.51
2022-12-09T10:49:03.366Z,10.49
2022-12-09T10:51:39.694Z,10.50
2022-12-09T10:54:29.025Z,10.52
2022-12-09T10:57:25.094Z,10.48
2022-12-09T11:00:07.939Z,10.50
2022-12-09T11:02:53.079Z,10.52
2022-12-09T11:05:30.332Z,10.42
2022-12-09T11:08:05.181Z,10.39
2022-12-09T11:10:40.021Z,10.37
2022-12-09T11:13:21.053Z,10.35
2022-12-09T11:15:59.652Z,10.33
2022-12-09T11:18:37.992Z,10.37
2022-12-09T11:21:31.717Z,10.46
2022-12-09T11:24:06.882Z,10.51
2022-12-09T11:26:43.297Z,10.51
2022-12-09T11:29:19.692Z,10.51
2022-12-09T11:31:56.310Z,10.49
2022-12-09T11:34:29.063Z,10.50
2022-12-09T11:37:02.851Z,10.46
2022-12-09T11:39:36.464Z,10.57
2022-12-09T11:42:18.840Z,10.62
2022-12-09T11:44:58.026Z,10.66
2022-12-09T11:47:57.331Z,10.83
2022-12-09T11:50:31.710Z,10.98
2022-12-09T11:53:25.436Z,11.13
2022-12-09T11:56:03.301Z,11.20
2022-12-09T11:58:40.587Z,11.39
2022-12-09T12:01:16.772Z,11.56
2022-12-09T12:03:54.027Z,11.38
2022-12-09T12:06:28.728Z,11.31
2022-12-09T12:09:07.136Z,11.41
2022-12-09T12:11:43.273Z,11.52
2022-12-09T12:14:24.675Z,11.52
2022-12-09T12:17:05.122Z,11.54
2022-12-09T12:19:40.215Z,11.43
2022-12-09T12:22:26.719Z,11.40
2022-12-09T12:25:17.780Z,11.16
2022-12-09T12:28:14.302Z,11.01
2022-12-09T12:30:54.278Z,10.90
2022-12-09T12:34:07.917Z,10.90
2022-12-09T12:36:39.577Z,10.90
2022-12-09T12:39:20.438Z,10.87
2022-12-09T12:42:01.415Z,10.87
2022-12-09T12:45:11.575Z,10.85
2022-12-09T12:47:48.548Z,10.82
2022-12-09T12:50:39.897Z,10.83
2022-12-09T12:53:19.254Z,10.78
2022-12-09T12:55:58.531Z,10.81
2022-12-09T12:58:44.336Z,10.81
2022-12-09T13:01:30.274Z,10.86
2022-12-09T13:04:18.878Z,10.88
2022-12-09T13:06:54.267Z,10.82
2022-12-09T13:09:30.705Z,10.77
2022-12-09T13:12:11.548Z,10.65
2022-12-09T13:14:52.249Z,10.65
2022-12-09T13:17:28.546Z,10.59
2022-12-09T13:20:02.938Z,10.55
2022-12-09T13:22:41.957Z,10.53
2022-12-09T13:25:26.132Z,10.51
2022-12-09T13:28:02.292Z,10.45
2022-12-09T13:30:39.555Z,10.41
2022-12-09T13:33:30.803Z,10.38
2022-12-09T13:36:06.589Z,10.34
2022-12-09T13:38:42.411Z,10.33
2022-12-09T13:41:59.704Z,10.32
2022-12-09T13:44:36.232Z,10.25
2022-12-09T13:47:29.470Z,10.19
2022-12-09T13:50:06.838Z,10.16
2022-12-09T13:52:46.187Z,10.20
2022-12-09T13:55:32.934Z,10.19
2022-12-09T13:58:27.016Z,10.16
2022-12-09T14:01:07.719Z,10.14
2022-12-09T14:03:41.587Z,10.13
2022-12-09T14:06:23.627Z,10.09
2022-12-09T14:08:58.537Z,10.05
2022-12-09T14:11:49.504Z,10.01
2022-12-09T14:15:02.036Z,9.95
2022-12-09T14:18:04.567Z,9.86
2022-12-09T14:20:40.459Z,9.86
2022-12-09T14:23:19.180Z,9.88
2022-12-09T14:26:09.944Z,9.76
2022-12-09T14:28:57.153Z,9.67
2022-12-09T14:31:59.905Z,9.66
2022-12-09T14:34:42.081Z,9.64
2022-12-09T14:37:52.212Z,9.58
2022-12-09T14:40:35.632Z,9.50
2022-12-09T14:43:22.326Z,9.42
2022-12-09T14:45:58.062Z,9.22
2022-12-09T14:48:34.350Z,9.17
2022-12-09T14:51:16.244Z,9.17
2022-12-09T14:53:53.384Z,9.16
2022-12-09T14:56:28.554Z,9.10
2022-12-09T14:59:04.823Z,9.10
2022-12-09T15:01:53.124Z,9.04
2022-12-09T15:04:34.303Z,8.89
2022-12-09T15:07:21.107Z,8.79
2022-12-09T15:09:58.327Z,8.73
2022-12-09T15:12:34.233Z,8.72
2022-12-09T15:15:13.836Z,8.72
2022-12-09T15:17:49.816Z,8.72
2022-12-09T15:20:27.394Z,8.76
2022-12-09T15:23:03.988Z,8.78
2022-12-09T15:25:38.379Z,8.77
2022-12-09T15:28:21.440Z,8.76
2022-12-09T15:31:00.296Z,8.68
2022-12-09T15:33:41.388Z,8.55
2022-12-09T15:36:16.048Z,8.39
2022-12-09T15:38:51.310Z,8.27
2022-12-09T15:41:41.731Z,8.24
2022-12-09T15:44:18.910Z,8.26
2022-12-09T15:46:53.644Z,8.08
2022-12-09T15:49:27.554Z,7.92
2022-12-09T15:52:00.217Z,7.82
2022-12-09T15:54:35.880Z,7.76
2022-12-09T15:57:10.259Z,7.73
2022-12-09T15:59:49.723Z,7.68
2022-12-09T16:02:29.880Z,7.65
2022-12-09T16:05:05.795Z,7.57
2022-12-09T16:07:39.550Z,7.44
2022-12-09T16:10:17.525Z,7.34
2022-12-09T16:13:09.948Z,7.27
2022-12-09T16:15:54.423Z,7.23
2022-12-09T16:18:30.196Z,7.25
2022-12-09T16:21:27.739Z,7.24
2022-12-09T16:24:14.077Z,7.27
2022-12-09T16:26:51.157Z,7.30
2022-12-09T16:29:27.412Z,7.29
2022-12-09T16:32:23.504Z,7.30
2022-12-09T16:34:57.655Z,7.26
2022-12-09T16:37:40.025Z,7.23
2022-12-09T16:40:48.625Z,7.27
2022-12-09T16:43:26.248Z,7.25
2022-12-09T16:45:59.886Z,7.30
2022-12-09T16:48:33.264Z,7.36
2022-12-09T16:51:14.459Z,7.36
2022-12-09T16:53:50.925Z,7.37
2022-12-09T16:56:26.141Z,7.37
2022-12-09T16:58:59.343Z,7.38
2022-12-09T17:01:37.144Z,7.38
2022-12-09T17:04:16.291Z,7.33
2022-12-09T17:06:49.031Z,7.36
2022-12-09T17:09:21.815Z,7.42
2022-12-09T17:11:54.309Z,7.45
2022-12-09T17:14:28.959Z,7.48
2022-12-09T17:17:04.011Z,7.52
2022-12-09T17:19:38.580Z,7.50
2022-12-09T17:22:11.133Z,7.49
2022-12-09T17:24:44.784Z,7.48
2022-12-09T17:27:18.249Z,7.43
2022-12-09T17:29:51.039Z,7.41
2022-12-09T17:32:23.615Z,7.40
2022-12-09T17:34:58.182Z,7.35
2022-12-09T17:37:31.027Z,7.28
2022-12-09T17:40:04.728Z,7.26
2022-12-09T17:42:37.881Z,7.31
2022-12-09T17:45:12.144Z,7.31
2022-12-09T17:47:44.176Z,7.28
2022-12-09T17:50:17.293Z,7.23
2022-12-09T17:52:49.909Z,7.10
2022-12-09T17:55:22.197Z,6.96
2022-12-09T17:57:57.821Z,6.88
2022-12-09T18:00:30.754Z,6.94
2022-12-09T18:03:05.358Z,7.01
2022-12-09T18:05:41.371Z,7.00
2022-12-09T18:08:15.865Z,7.01
2022-12-09T18:10:52.185Z,7.03
2022-12-09T18:13:24.295Z,7.04
2022-12-09T18:15:57.663Z,7.08
2022-12-09T18:18:31.515Z,7.12
2022-12-09T18:21:10.603Z,7.09
2022-12-09T18:23:48.322Z,7.10
2022-12-09T18:26:25.752Z,7.06
2022-12-09T18:29:00.945Z,7.03
2022-12-09T18:31:36.884Z,7.04
2022-12-09T18:34:09.872Z,7.08
2022-12-09T18:36:43.453Z,7.15
2022-12-09T18:39:19.298Z,7.12
2022-12-09T18:41:51.719Z,6.96
2022-12-09T18:44:27.223Z,6.87
2022-12-09T18:47:00.810Z,6.85
2022-12-09T18:49:37.479Z,6.85
2022-12-09T18:52:10.557Z,6.77
2022-12-09T18:54:42.857Z,6.82
2022-12-09T18:57:15.091Z,6.83
2022-12-09T18:59:49.035Z,6.84
2022-12-09T19:02:21.738Z,6.88
2022-12-09T19:04:54.676Z,6.88
2022-12-09T19:07:32.075Z,6.87
2022-12-09T19:10:06.679Z,6.84
2022-12-09T19:12:49.730Z,6.74
2022-12-09T19:15:23.973Z,6.75
2022-12-09T19:17:57.537Z,6.77
2022-12-09T19:20:32.654Z,6.77
2022-12-09T19:23:06.052Z,6.77
2022-12-09T19:25:43.082Z,6.79
2022-12-09T19:28:17.545Z,6.79
2022-12-09T19:30:51.050Z,6.78
2022-12-09T19:33:25.056Z,6.77
2022-12-09T19:35:57.212Z,6.77
2022-12-09T19:38:33.057Z,6.77
2022-12-09T19:41:07.449Z,6.75
2022-12-09T19:43:42.256Z,6.69
2022-12-09T19:46:15.914Z,6.70
2022-12-09T19:48:51.392Z,6.73
2022-12-09T19:51:26.095Z,6.76
2022-12-09T19:54:00.838Z,6.74
2022-12-09T19:56:35.496Z,6.73
2022-12-09T19:59:10.211Z,6.77
2022-12-09T20:01:45.540Z,6.76
2022-12-09T20:04:47.649Z,6.78
2022-12-09T20:07:13.165Z,6.77
2022-12-09T20:09:46.465Z,6.76
2022-12-09T20:12:18.543Z,6.75
2022-12-09T20:14:52.326Z,6.74
2022-12-09T20:17:24.506Z,6.74
2022-12-09T20:19:58.115Z,6.78
2022-12-09T20:22:32.225Z,6.83
2022-12-09T20:25:06.424Z,6.85
2022-12-09T20:27:39.581Z,6.80
2022-12-09T20:30:19.550Z,6.76
2022-12-09T20:32:52.266Z,6.77
2022-12-09T20:35:24.713Z,6.83
2022-12-09T20:37:56.802Z,6.85
2022-12-09T20:40:28.957Z,6.88
2022-12-09T20:43:02.056Z,6.92
2022-12-09T20:45:36.882Z,6.97
2022-12-09T20:48:10.291Z,6.98
2022-12-09T20:50:43.153Z,7.00
2022-12-09T20:53:17.477Z,6.95
2022-12-09T20:55:59.576Z,6.92
2022-12-09T20:58:34.720Z,6.94
2022-12-09T21:01:13.290Z,6.93
2022-12-09T21:03:48.394Z,6.86
2022-12-09T21:06:23.340Z,6.83
2022-12-09T21:08:58.361Z,6.83
2022-12-09T21:11:33.177Z,6.83
2022-12-09T21:14:09.025Z,6.81
2022-12-09T21:16:42.769Z,6.80
2022-12-09T21:19:20.205Z,6.81
2022-12-09T21:21:55.748Z,6.78
2022-12-09T21:24:28.789Z,6.77
2022-12-09T21:27:03.080Z,6.70
2022-12-09T21:29:36.986Z,6.68
2022-12-09T21:32:09.396Z,6.68
2022-12-09T21:34:44.261Z,6.68
2022-12-09T21:37:19.119Z,6.70
2022-12-09T21:39:53.950Z,6.67
2022-12-09T21:42:28.893Z,6.65
2022-12-09T21:45:04.400Z,6.64
2022-12-09T21:47:39.455Z,6.65
2022-12-09T21:50:15.046Z,6.66
2022-12-09T21:52:47.713Z,6.61
2022-12-09T21:55:19.794Z,6.59
2022-12-09T21:57:53.950Z,6.58
2022-12-09T22:00:27.058Z,6.64
2022-12-09T22:02:59.423Z,6.68
2022-12-09T22:05:32.207Z,6.72
2022-12-09T22:08:05.079Z,6.73
2022-12-09T22:10:40.489Z,6.68
2022-12-09T22:13:13.211Z,6.70
2022-12-09T22:15:46.305Z,6.70
2022-12-09T22:18:19.713Z,6.63
2022-12-09T22:21:23.548Z,6.64
2022-12-09T22:23:46.789Z,6.69
2022-12-09T22:26:21.235Z,6.65
2022-12-09T22:28:54.917Z,6.66
2022-12-09T22:31:28.287Z,6.62
2022-12-09T22:34:03.143Z,6.63
2022-12-09T22:36:38.504Z,6.58
2022-12-09T22:39:14.020Z,6.59
2022-12-09T22:41:46.484Z,6.56
2022-12-09T22:44:20.271Z,6.53
2022-12-09T22:46:54.047Z,6.51
2022-12-09T22:49:26.968Z,6.49
2022-12-09T22:52:00.927Z,6.51
2022-12-09T22:54:33.501Z,6.46
2022-12-09T22:57:07.087Z,6.41
2022-12-09T22:59:42.950Z,6.44
2022-12-09T23:02:16.507Z,6.42
2022-12-09T23:04:51.291Z,6.45
2022-12-09T23:07:24.821Z,6.47
2022-12-09T23:09:57.362Z,6.53
2022-12-09T23:12:31.442Z,6.56
2022-12-09T23:15:03.278Z,6.54
2022-12-09T23:17:37.246Z,6.51
2022-12-09T23:20:12.315Z,6.48
2022-12-09T23:22:44.973Z,6.48
2022-12-09T23:25:17.451Z,6.46
2022-12-09T23:27:51.936Z,6.43
2022-12-09T23:30:24.504Z,6.44
2022-12-09T23:32:57.001Z,6.42
2022-12-09T23:35:29.186Z,6.46
2022-12-09T23:38:01.023Z,6.47
2022-12-09T23:40:36.656Z,6.44
2022-12-09T23:43:09.879Z,6.34
2022-12-09T23:45:42.939Z,6.26
2022-12-09T23:48:19.741Z,6.25
2022-12-09T23:50:52.435Z,6.26
2022-12-09T23:53:24.666Z,6.29
2022-12-09T23:55:56.777Z,6.35
2022-12-09T23:58:30.952Z,6.35
